The Florida Keys Marathon Airport Marathon US
ICAO: KMTH
IATA: MTH
Category: Medium
Scheduled Services: No

Elevation: 5 ft
TransAlt. 18000 ft.

Airport Communications:
ASOS:135.525
MIAMI CNTR:133.5
MIAMI RDO:122.6
CTAF/UNICOM:122.8

KMTH Zoom In..

Runways:

(A) RW 07 length 5008 ft width 100 ft
---- / hdg 71

(B) RW 25 length 5008 ft width 100 ft
---- / hdg 251

Location; KMTH
Day. 22 / Time. 03.53 Zulu
* Altimeter: 30.11
* Temperature: 22° c. 71.6°f.
* Wind from: 080° Speed 09 kn.
Dewpoint: 19° c.
Visibility: 10 Statute Miles.
Clouds: Clear (automated report).

KMTH 220353Z AUTO 08009KT 10SM CLR 22/19 A3011 RMK AO2 SLP194 T02220189 $


Wind From 080°
Speed 09 kn.

jpsM music video
CHECK IT OUT

jpsM - It Moves..

 
jpsmedia.com for Web Design  worldairports.se 2018   terms of use